sensor_id;sensor_type;location;lat;lon;timestamp;temperature;humidity
25468;DHT22;13384;24.794;110.498;2022-08-04T00:01:59;27.20;99.90
25468;DHT22;13384;24.794;110.498;2022-08-04T00:04:43;27.20;99.90
25468;DHT22;13384;24.794;110.498;2022-08-04T00:10:24;27.30;99.90
25468;DHT22;13384;24.794;110.498;2022-08-04T00:12:59;27.30;99.90
25468;DHT22;13384;24.794;110.498;2022-08-04T00:15:45;27.30;99.90
25468;DHT22;13384;24.794;110.498;2022-08-04T00:18:17;27.40;99.90
25468;DHT22;13384;24.794;110.498;2022-08-04T00:20:56;27.50;99.90
25468;DHT22;13384;24.794;110.498;2022-08-04T00:23:33;27.50;99.90
25468;DHT22;13384;24.794;110.498;2022-08-04T00:26:25;27.60;99.90
25468;DHT22;13384;24.794;110.498;2022-08-04T00:28:56;27.60;99.90
25468;DHT22;13384;24.794;110.498;2022-08-04T00:31:28;27.60;99.90
25468;DHT22;13384;24.794;110.498;2022-08-04T00:34:19;27.70;99.90
25468;DHT22;13384;24.794;110.498;2022-08-04T00:36:53;27.70;99.90
25468;DHT22;13384;24.794;110.498;2022-08-04T00:39:24;27.80;99.90
25468;DHT22;13384;24.794;110.498;2022-08-04T00:45:39;27.70;99.90
25468;DHT22;13384;24.794;110.498;2022-08-04T01:03:44;27.90;99.90
25468;DHT22;13384;24.794;110.498;2022-08-04T01:06:36;27.90;99.90
25468;DHT22;13384;24.794;110.498;2022-08-04T01:09:39;27.80;99.90
25468;DHT22;13384;24.794;110.498;2022-08-04T01:15:17;27.80;99.90
25468;DHT22;13384;24.794;110.498;2022-08-04T01:20:25;27.80;99.90
25468;DHT22;13384;24.794;110.498;2022-08-04T01:29:13;27.90;99.90
25468;DHT22;13384;24.794;110.498;2022-08-04T01:32:01;28.10;99.90
25468;DHT22;13384;24.794;110.498;2022-08-04T01:34:42;28.30;99.90
25468;DHT22;13384;24.794;110.498;2022-08-04T01:40:08;28.50;99.90
25468;DHT22;13384;24.794;110.498;2022-08-04T01:42:44;28.50;99.90
25468;DHT22;13384;24.794;110.498;2022-08-04T01:45:15;28.60;99.90
25468;DHT22;13384;24.794;110.498;2022-08-04T01:47:54;28.50;99.90
25468;DHT22;13384;24.794;110.498;2022-08-04T01:50:26;28.60;99.90
25468;DHT22;13384;24.794;110.498;2022-08-04T01:53:02;28.60;99.90
25468;DHT22;13384;24.794;110.498;2022-08-04T01:55:34;28.60;99.90
25468;DHT22;13384;24.794;110.498;2022-08-04T01:58:24;28.70;99.90
25468;DHT22;13384;24.794;110.498;2022-08-04T02:03:40;28.80;99.90
25468;DHT22;13384;24.794;110.498;2022-08-04T02:15:27;29.00;99.90
25468;DHT22;13384;24.794;110.498;2022-08-04T02:18:04;29.00;99.90
25468;DHT22;13384;24.794;110.498;2022-08-04T02:20:43;29.10;99.90
25468;DHT22;13384;24.794;110.498;2022-08-04T02:26:20;28.90;99.90
25468;DHT22;13384;24.794;110.498;2022-08-04T02:29:03;29.00;99.90
25468;DHT22;13384;24.794;110.498;2022-08-04T02:31:52;29.20;99.90
25468;DHT22;13384;24.794;110.498;2022-08-04T02:34:35;29.20;99.90
25468;DHT22;13384;24.794;110.498;2022-08-04T02:37:30;29.20;99.90
25468;DHT22;13384;24.794;110.498;2022-08-04T02:40:06;29.10;99.90
25468;DHT22;13384;24.794;110.498;2022-08-04T02:42:41;29.10;99.90
25468;DHT22;13384;24.794;110.498;2022-08-04T02:45:15;29.20;99.90
25468;DHT22;13384;24.794;110.498;2022-08-04T02:47:50;29.20;99.90
25468;DHT22;13384;24.794;110.498;2022-08-04T02:50:43;29.20;99.90
25468;DHT22;13384;24.794;110.498;2022-08-04T02:53:22;29.30;99.90
25468;DHT22;13384;24.794;110.498;2022-08-04T02:55:55;29.50;99.90
25468;DHT22;13384;24.794;110.498;2022-08-04T02:58:33;29.50;99.90
25468;DHT22;13384;24.794;110.498;2022-08-04T03:01:05;29.70;99.90
25468;DHT22;13384;24.794;110.498;2022-08-04T03:03:43;29.80;99.90
25468;DHT22;13384;24.794;110.498;2022-08-04T03:09:23;30.00;99.90
25468;DHT22;13384;24.794;110.498;2022-08-04T03:21:32;30.40;99.90
25468;DHT22;13384;24.794;110.498;2022-08-04T03:30:18;30.40;99.90
25468;DHT22;13384;24.794;110.498;2022-08-04T03:44:47;30.90;99.90
25468;DHT22;13384;24.794;110.498;2022-08-04T04:11:24;31.50;99.90
25468;DHT22;13384;24.794;110.498;2022-08-04T04:17:08;31.20;99.90
25468;DHT22;13384;24.794;110.498;2022-08-04T04:19:51;31.40;99.90
25468;DHT22;13384;24.794;110.498;2022-08-04T04:22:54;31.70;99.90
25468;DHT22;13384;24.794;110.498;2022-08-04T04:28:35;31.90;99.90
25468;DHT22;13384;24.794;110.498;2022-08-04T04:31:38;32.00;99.90
25468;DHT22;13384;24.794;110.498;2022-08-04T04:37:20;31.80;99.90
25468;DHT22;13384;24.794;110.498;2022-08-04T04:43:44;32.10;99.90
25468;DHT22;13384;24.794;110.498;2022-08-04T04:52:08;32.20;99.90
25468;DHT22;13384;24.794;110.498;2022-08-04T04:57:49;33.10;99.90
25468;DHT22;13384;24.794;110.498;2022-08-04T05:00:42;33.60;99.90
25468;DHT22;13384;24.794;110.498;2022-08-04T05:06:45;33.70;99.90
25468;DHT22;13384;24.794;110.498;2022-08-04T05:09:31;34.20;99.90
25468;DHT22;13384;24.794;110.498;2022-08-04T05:15:39;33.40;99.90
25468;DHT22;13384;24.794;110.498;2022-08-04T05:18:15;33.20;99.90
25468;DHT22;13384;24.794;110.498;2022-08-04T05:20:57;33.40;99.90
25468;DHT22;13384;24.794;110.498;2022-08-04T05:23:32;33.80;99.90
25468;DHT22;13384;24.794;110.498;2022-08-04T05:26:11;33.90;99.90
25468;DHT22;13384;24.794;110.498;2022-08-04T05:28:50;34.20;99.90
25468;DHT22;13384;24.794;110.498;2022-08-04T05:31:31;34.30;99.90
25468;DHT22;13384;24.794;110.498;2022-08-04T05:34:08;34.30;99.90
25468;DHT22;13384;24.794;110.498;2022-08-04T05:37:07;34.70;99.10
25468;DHT22;13384;24.794;110.498;2022-08-04T05:40:17;34.90;99.20
25468;DHT22;13384;24.794;110.498;2022-08-04T05:42:41;34.90;99.10
25468;DHT22;13384;24.794;110.498;2022-08-04T05:45:19;34.50;99.50
25468;DHT22;13384;24.794;110.498;2022-08-04T05:48:09;34.20;99.90
25468;DHT22;13384;24.794;110.498;2022-08-04T05:50:42;34.10;99.90
25468;DHT22;13384;24.794;110.498;2022-08-04T05:53:15;34.00;99.90
25468;DHT22;13384;24.794;110.498;2022-08-04T05:55:48;33.70;99.90
25468;DHT22;13384;24.794;110.498;2022-08-04T05:58:29;33.40;99.90
25468;DHT22;13384;24.794;110.498;2022-08-04T06:01:01;32.60;99.90
25468;DHT22;13384;24.794;110.498;2022-08-04T06:03:34;32.00;99.90
25468;DHT22;13384;24.794;110.498;2022-08-04T06:06:28;31.60;99.90
25468;DHT22;13384;24.794;110.498;2022-08-04T06:09:00;31.20;99.90
25468;DHT22;13384;24.794;110.498;2022-08-04T06:11:32;31.10;99.90
25468;DHT22;13384;24.794;110.498;2022-08-04T06:14:30;31.10;99.90
25468;DHT22;13384;24.794;110.498;2022-08-04T06:17:06;31.30;99.90
25468;DHT22;13384;24.794;110.498;2022-08-04T06:20:02;31.80;99.90
25468;DHT22;13384;24.794;110.498;2022-08-04T06:22:54;32.20;99.90
25468;DHT22;13384;24.794;110.498;2022-08-04T06:25:37;32.60;99.90
25468;DHT22;13384;24.794;110.498;2022-08-04T06:28:11;32.90;99.90
25468;DHT22;13384;24.794;110.498;2022-08-04T06:30:43;33.30;99.90
25468;DHT22;13384;24.794;110.498;2022-08-04T06:34:03;33.50;99.90
25468;DHT22;13384;24.794;110.498;2022-08-04T06:36:36;33.60;99.90
25468;DHT22;13384;24.794;110.498;2022-08-04T06:39:11;33.60;99.90
25468;DHT22;13384;24.794;110.498;2022-08-04T06:41:43;33.50;99.90
25468;DHT22;13384;24.794;110.498;2022-08-04T06:44:39;33.40;99.90
25468;DHT22;13384;24.794;110.498;2022-08-04T06:47:15;33.20;99.90
25468;DHT22;13384;24.794;110.498;2022-08-04T06:49:51;33.20;99.90
25468;DHT22;13384;24.794;110.498;2022-08-04T06:52:44;32.90;99.90
25468;DHT22;13384;24.794;110.498;2022-08-04T06:55:16;32.40;99.90
25468;DHT22;13384;24.794;110.498;2022-08-04T06:57:48;32.10;99.90
25468;DHT22;13384;24.794;110.498;2022-08-04T07:00:19;31.80;99.90
25468;DHT22;13384;24.794;110.498;2022-08-04T07:02:54;31.70;99.90
25468;DHT22;13384;24.794;110.498;2022-08-04T07:05:28;31.50;99.90
25468;DHT22;13384;24.794;110.498;2022-08-04T07:07:59;31.60;99.90
25468;DHT22;13384;24.794;110.498;2022-08-04T07:10:31;31.80;99.90
25468;DHT22;13384;24.794;110.498;2022-08-04T07:13:02;32.10;99.90
25468;DHT22;13384;24.794;110.498;2022-08-04T07:15:35;32.40;99.90
25468;DHT22;13384;24.794;110.498;2022-08-04T07:18:09;32.80;99.90
25468;DHT22;13384;24.794;110.498;2022-08-04T07:20:53;33.20;99.90
25468;DHT22;13384;24.794;110.498;2022-08-04T07:23:37;33.60;99.90
25468;DHT22;13384;24.794;110.498;2022-08-04T07:26:08;33.80;99.90
25468;DHT22;13384;24.794;110.498;2022-08-04T07:28:41;33.80;99.90
25468;DHT22;13384;24.794;110.498;2022-08-04T07:31:16;34.10;99.90
25468;DHT22;13384;24.794;110.498;2022-08-04T07:34:03;34.20;99.90
25468;DHT22;13384;24.794;110.498;2022-08-04T07:36:53;34.40;99.90
25468;DHT22;13384;24.794;110.498;2022-08-04T07:39:27;34.60;99.90
25468;DHT22;13384;24.794;110.498;2022-08-04T07:42:21;34.50;99.90
25468;DHT22;13384;24.794;110.498;2022-08-04T07:44:52;34.90;99.90
25468;DHT22;13384;24.794;110.498;2022-08-04T07:47:24;34.90;99.90
25468;DHT22;13384;24.794;110.498;2022-08-04T07:49:57;35.10;99.90
25468;DHT22;13384;24.794;110.498;2022-08-04T07:52:30;35.30;99.90
25468;DHT22;13384;24.794;110.498;2022-08-04T07:55:08;35.00;99.90
25468;DHT22;13384;24.794;110.498;2022-08-04T07:58:00;35.00;99.90
25468;DHT22;13384;24.794;110.498;2022-08-04T08:00:32;35.20;99.90
25468;DHT22;13384;24.794;110.498;2022-08-04T08:03:04;35.30;99.60
25468;DHT22;13384;24.794;110.498;2022-08-04T08:05:36;35.10;98.10
25468;DHT22;13384;24.794;110.498;2022-08-04T08:08:29;35.10;99.90
25468;DHT22;13384;24.794;110.498;2022-08-04T08:11:01;34.90;99.90
25468;DHT22;13384;24.794;110.498;2022-08-04T08:13:35;34.60;99.90
25468;DHT22;13384;24.794;110.498;2022-08-04T08:16:07;34.40;99.90
25468;DHT22;13384;24.794;110.498;2022-08-04T08:18:38;34.20;99.90
25468;DHT22;13384;24.794;110.498;2022-08-04T08:21:19;34.00;99.90
25468;DHT22;13384;24.794;110.498;2022-08-04T08:23:51;33.70;99.90
25468;DHT22;13384;24.794;110.498;2022-08-04T08:26:22;33.50;99.90
25468;DHT22;13384;24.794;110.498;2022-08-04T08:29:07;33.40;99.90
25468;DHT22;13384;24.794;110.498;2022-08-04T08:31:39;33.40;99.90
25468;DHT22;13384;24.794;110.498;2022-08-04T08:34:29;33.10;99.90
25468;DHT22;13384;24.794;110.498;2022-08-04T08:37:33;32.80;99.90
25468;DHT22;13384;24.794;110.498;2022-08-04T08:40:34;32.50;99.90
25468;DHT22;13384;24.794;110.498;2022-08-04T08:49:27;31.60;99.90
25468;DHT22;13384;24.794;110.498;2022-08-04T09:04:29;30.60;99.90
25468;DHT22;13384;24.794;110.498;2022-08-04T09:10:17;30.40;99.90
25468;DHT22;13384;24.794;110.498;2022-08-04T09:13:53;30.40;99.90
25468;DHT22;13384;24.794;110.498;2022-08-04T09:19:38;30.10;99.90
25468;DHT22;13384;24.794;110.498;2022-08-04T09:22:35;29.80;99.90
25468;DHT22;13384;24.794;110.498;2022-08-04T09:25:25;29.30;99.90
25468;DHT22;13384;24.794;110.498;2022-08-04T09:28:25;29.20;99.90
25468;DHT22;13384;24.794;110.498;2022-08-04T09:31:32;29.20;99.90
25468;DHT22;13384;24.794;110.498;2022-08-04T09:46:25;29.20;99.90
25468;DHT22;13384;24.794;110.498;2022-08-04T09:49:37;29.20;99.90
25468;DHT22;13384;24.794;110.498;2022-08-04T09:56:08;28.90;99.90
25468;DHT22;13384;24.794;110.498;2022-08-04T10:01:29;28.80;99.90
25468;DHT22;13384;24.794;110.498;2022-08-04T10:04:03;28.90;99.90
25468;DHT22;13384;24.794;110.498;2022-08-04T10:10:09;28.90;99.90
25468;DHT22;13384;24.794;110.498;2022-08-04T10:19:31;28.80;99.90
25468;DHT22;13384;24.794;110.498;2022-08-04T10:34:40;28.70;99.90
25468;DHT22;13384;24.794;110.498;2022-08-04T10:37:22;28.80;99.90
25468;DHT22;13384;24.794;110.498;2022-08-04T10:40:25;28.80;99.90
25468;DHT22;13384;24.794;110.498;2022-08-04T10:43:24;28.80;99.90
25468;DHT22;13384;24.794;110.498;2022-08-04T10:46:17;28.70;99.90
25468;DHT22;13384;24.794;110.498;2022-08-04T10:49:09;28.80;99.90
25468;DHT22;13384;24.794;110.498;2022-08-04T10:51:50;28.60;99.90
25468;DHT22;13384;24.794;110.498;2022-08-04T10:54:44;28.60;99.90
25468;DHT22;13384;24.794;110.498;2022-08-04T10:57:42;28.40;99.90
25468;DHT22;13384;24.794;110.498;2022-08-04T11:00:22;28.60;99.90
25468;DHT22;13384;24.794;110.498;2022-08-04T11:05:55;28.60;99.90
25468;DHT22;13384;24.794;110.498;2022-08-04T11:08:41;28.60;99.90
25468;DHT22;13384;24.794;110.498;2022-08-04T11:14:15;28.60;99.90
25468;DHT22;13384;24.794;110.498;2022-08-04T11:16:48;28.60;99.90
25468;DHT22;13384;24.794;110.498;2022-08-04T11:25:19;28.80;99.90
25468;DHT22;13384;24.794;110.498;2022-08-04T11:31:25;28.70;99.90
25468;DHT22;13384;24.794;110.498;2022-08-04T11:34:21;28.60;99.90
25468;DHT22;13384;24.794;110.498;2022-08-04T11:40:26;28.60;99.90
25468;DHT22;13384;24.794;110.498;2022-08-04T11:43:17;28.50;99.90
25468;DHT22;13384;24.794;110.498;2022-08-04T11:46:21;28.50;99.90
25468;DHT22;13384;24.794;110.498;2022-08-04T11:49:02;28.50;99.90
25468;DHT22;13384;24.794;110.498;2022-08-04T11:51:49;28.50;99.90
25468;DHT22;13384;24.794;110.498;2022-08-04T11:54:22;28.40;99.90
25468;DHT22;13384;24.794;110.498;2022-08-04T11:56:54;28.40;99.90
25468;DHT22;13384;24.794;110.498;2022-08-04T11:59:46;28.50;99.90
25468;DHT22;13384;24.794;110.498;2022-08-04T12:05:34;28.50;99.90
25468;DHT22;13384;24.794;110.498;2022-08-04T12:17:14;28.30;99.90
25468;DHT22;13384;24.794;110.498;2022-08-04T12:20:06;28.30;99.90
25468;DHT22;13384;24.794;110.498;2022-08-04T12:23:01;28.20;99.90
25468;DHT22;13384;24.794;110.498;2022-08-04T12:25:37;28.10;99.90
25468;DHT22;13384;24.794;110.498;2022-08-04T12:28:32;28.20;99.90
25468;DHT22;13384;24.794;110.498;2022-08-04T12:31:40;28.20;99.90
25468;DHT22;13384;24.794;110.498;2022-08-04T12:40:57;28.20;99.90
25468;DHT22;13384;24.794;110.498;2022-08-04T12:43:41;28.20;99.90
25468;DHT22;13384;24.794;110.498;2022-08-04T12:46:26;28.00;99.90
25468;DHT22;13384;24.794;110.498;2022-08-04T12:49:42;28.10;99.90
25468;DHT22;13384;24.794;110.498;2022-08-04T12:52:41;27.90;99.90
25468;DHT22;13384;24.794;110.498;2022-08-04T12:55:33;27.80;99.90
25468;DHT22;13384;24.794;110.498;2022-08-04T12:58:15;27.80;99.90
25468;DHT22;13384;24.794;110.498;2022-08-04T13:01:27;27.90;99.90
25468;DHT22;13384;24.794;110.498;2022-08-04T13:04:24;28.00;99.90
25468;DHT22;13384;24.794;110.498;2022-08-04T13:07:11;27.90;99.90
25468;DHT22;13384;24.794;110.498;2022-08-04T13:10:16;28.00;99.90
25468;DHT22;13384;24.794;110.498;2022-08-04T13:13:00;27.90;99.90
25468;DHT22;13384;24.794;110.498;2022-08-04T13:15:36;27.90;99.90
25468;DHT22;13384;24.794;110.498;2022-08-04T13:18:48;27.80;99.90
25468;DHT22;13384;24.794;110.498;2022-08-04T13:21:25;27.70;99.90
25468;DHT22;13384;24.794;110.498;2022-08-04T13:24:18;27.80;99.90
25468;DHT22;13384;24.794;110.498;2022-08-04T13:27:04;27.80;99.90
25468;DHT22;13384;24.794;110.498;2022-08-04T13:29:49;27.90;99.90
25468;DHT22;13384;24.794;110.498;2022-08-04T13:32:35;27.90;99.90
25468;DHT22;13384;24.794;110.498;2022-08-04T13:35:09;27.90;99.90
25468;DHT22;13384;24.794;110.498;2022-08-04T13:37:44;27.80;99.90
25468;DHT22;13384;24.794;110.498;2022-08-04T13:40:16;27.60;99.90
25468;DHT22;13384;24.794;110.498;2022-08-04T13:42:53;27.70;99.90
25468;DHT22;13384;24.794;110.498;2022-08-04T13:45:27;27.80;99.90
25468;DHT22;13384;24.794;110.498;2022-08-04T13:48:04;27.80;99.90
25468;DHT22;13384;24.794;110.498;2022-08-04T13:50:58;27.80;99.90
25468;DHT22;13384;24.794;110.498;2022-08-04T13:53:36;27.80;99.90
25468;DHT22;13384;24.794;110.498;2022-08-04T13:56:09;27.70;99.90
25468;DHT22;13384;24.794;110.498;2022-08-04T13:58:44;27.70;99.90
25468;DHT22;13384;24.794;110.498;2022-08-04T14:01:26;27.60;99.90
25468;DHT22;13384;24.794;110.498;2022-08-04T14:04:16;27.70;99.90
25468;DHT22;13384;24.794;110.498;2022-08-04T14:09:23;27.70;99.90
25468;DHT22;13384;24.794;110.498;2022-08-04T14:12:15;27.70;99.90
25468;DHT22;13384;24.794;110.498;2022-08-04T14:18:30;27.50;99.90
25468;DHT22;13384;24.794;110.498;2022-08-04T14:21:06;27.50;99.90
25468;DHT22;13384;24.794;110.498;2022-08-04T14:24:01;27.50;99.90
25468;DHT22;13384;24.794;110.498;2022-08-04T14:26:33;27.50;99.90
25468;DHT22;13384;24.794;110.498;2022-08-04T14:29:13;27.50;99.90
25468;DHT22;13384;24.794;110.498;2022-08-04T14:32:16;27.50;99.90
25468;DHT22;13384;24.794;110.498;2022-08-04T14:34:53;27.60;99.90
25468;DHT22;13384;24.794;110.498;2022-08-04T14:37:25;27.60;99.90
25468;DHT22;13384;24.794;110.498;2022-08-04T14:39:56;27.50;99.90
25468;DHT22;13384;24.794;110.498;2022-08-04T14:42:47;27.40;99.90
25468;DHT22;13384;24.794;110.498;2022-08-04T14:45:38;27.40;99.90
25468;DHT22;13384;24.794;110.498;2022-08-04T14:48:23;27.40;99.90
25468;DHT22;13384;24.794;110.498;2022-08-04T14:50:56;27.50;99.90
25468;DHT22;13384;24.794;110.498;2022-08-04T14:53:28;27.50;99.90
25468;DHT22;13384;24.794;110.498;2022-08-04T14:56:00;27.50;99.90
25468;DHT22;13384;24.794;110.498;2022-08-04T14:58:34;27.50;99.90
25468;DHT22;13384;24.794;110.498;2022-08-04T15:01:08;27.60;99.90
25468;DHT22;13384;24.794;110.498;2022-08-04T15:03:44;27.60;99.90
25468;DHT22;13384;24.794;110.498;2022-08-04T15:06:24;27.60;99.90
25468;DHT22;13384;24.794;110.498;2022-08-04T15:09:16;27.60;99.90
25468;DHT22;13384;24.794;110.498;2022-08-04T15:12:10;27.50;99.90
25468;DHT22;13384;24.794;110.498;2022-08-04T15:14:43;27.40;99.90
25468;DHT22;13384;24.794;110.498;2022-08-04T15:17:18;27.40;99.90
25468;DHT22;13384;24.794;110.498;2022-08-04T15:20:19;27.20;99.90
25468;DHT22;13384;24.794;110.498;2022-08-04T15:22:53;27.10;99.90
25468;DHT22;13384;24.794;110.498;2022-08-04T15:25:52;27.00;99.90
25468;DHT22;13384;24.794;110.498;2022-08-04T15:28:25;26.90;99.90
25468;DHT22;13384;24.794;110.498;2022-08-04T15:31:00;26.90;99.90
25468;DHT22;13384;24.794;110.498;2022-08-04T15:33:55;26.80;99.90
25468;DHT22;13384;24.794;110.498;2022-08-04T15:36:34;26.60;99.90
25468;DHT22;13384;24.794;110.498;2022-08-04T15:42:46;26.40;99.90
25468;DHT22;13384;24.794;110.498;2022-08-04T15:45:23;26.50;99.90
25468;DHT22;13384;24.794;110.498;2022-08-04T15:59:04;26.60;99.90
25468;DHT22;13384;24.794;110.498;2022-08-04T16:01:36;26.50;99.90
25468;DHT22;13384;24.794;110.498;2022-08-04T16:04:28;26.40;99.90
25468;DHT22;13384;24.794;110.498;2022-08-04T16:07:06;26.40;99.90
25468;DHT22;13384;24.794;110.498;2022-08-04T16:09:37;26.40;99.90
25468;DHT22;13384;24.794;110.498;2022-08-04T16:12:52;26.50;99.90
25468;DHT22;13384;24.794;110.498;2022-08-04T16:15:52;26.50;99.90
25468;DHT22;13384;24.794;110.498;2022-08-04T16:21:29;26.40;99.90
25468;DHT22;13384;24.794;110.498;2022-08-04T16:24:43;26.40;99.90
25468;DHT22;13384;24.794;110.498;2022-08-04T16:27:41;26.50;99.90
25468;DHT22;13384;24.794;110.498;2022-08-04T16:30:27;26.40;99.90
25468;DHT22;13384;24.794;110.498;2022-08-04T16:32:58;26.20;99.90
25468;DHT22;13384;24.794;110.498;2022-08-04T16:35:33;26.20;99.90
25468;DHT22;13384;24.794;110.498;2022-08-04T16:38:14;26.10;99.90
25468;DHT22;13384;24.794;110.498;2022-08-04T16:40:57;26.00;99.90
25468;DHT22;13384;24.794;110.498;2022-08-04T16:43:31;26.20;99.90
25468;DHT22;13384;24.794;110.498;2022-08-04T16:46:02;26.30;99.90
25468;DHT22;13384;24.794;110.498;2022-08-04T16:49:05;26.20;99.90
25468;DHT22;13384;24.794;110.498;2022-08-04T16:51:38;26.10;99.90
25468;DHT22;13384;24.794;110.498;2022-08-04T16:54:10;26.10;99.90
25468;DHT22;13384;24.794;110.498;2022-08-04T16:56:43;26.20;99.90
25468;DHT22;13384;24.794;110.498;2022-08-04T16:59:14;26.10;99.90
25468;DHT22;13384;24.794;110.498;2022-08-04T17:01:51;26.10;99.90
25468;DHT22;13384;24.794;110.498;2022-08-04T17:04:33;26.10;99.90
25468;DHT22;13384;24.794;110.498;2022-08-04T17:07:06;26.10;99.90
25468;DHT22;13384;24.794;110.498;2022-08-04T17:09:49;26.10;99.90
25468;DHT22;13384;24.794;110.498;2022-08-04T17:12:27;26.10;99.90
25468;DHT22;13384;24.794;110.498;2022-08-04T17:14:58;26.10;99.90
25468;DHT22;13384;24.794;110.498;2022-08-04T17:17:30;26.10;99.90
25468;DHT22;13384;24.794;110.498;2022-08-04T17:20:25;26.10;99.90
25468;DHT22;13384;24.794;110.498;2022-08-04T17:23:35;26.10;99.90
25468;DHT22;13384;24.794;110.498;2022-08-04T17:26:32;26.10;99.90
25468;DHT22;13384;24.794;110.498;2022-08-04T17:29:09;26.10;99.90
25468;DHT22;13384;24.794;110.498;2022-08-04T17:32:13;26.10;99.90
25468;DHT22;13384;24.794;110.498;2022-08-04T17:34:57;26.20;99.90
25468;DHT22;13384;24.794;110.498;2022-08-04T17:37:32;26.10;99.90
25468;DHT22;13384;24.794;110.498;2022-08-04T17:40:15;26.10;99.90
25468;DHT22;13384;24.794;110.498;2022-08-04T17:43:02;26.10;99.90
25468;DHT22;13384;24.794;110.498;2022-08-04T17:46:32;26.10;99.90
25468;DHT22;13384;24.794;110.498;2022-08-04T17:51:50;26.10;99.90
25468;DHT22;13384;24.794;110.498;2022-08-04T17:54:39;26.10;99.90
25468;DHT22;13384;24.794;110.498;2022-08-04T17:57:20;26.00;99.90
25468;DHT22;13384;24.794;110.498;2022-08-04T17:59:56;26.00;99.90
25468;DHT22;13384;24.794;110.498;2022-08-04T18:02:36;26.10;99.90
25468;DHT22;13384;24.794;110.498;2022-08-04T18:05:07;26.10;99.90
25468;DHT22;13384;24.794;110.498;2022-08-04T18:07:42;26.10;99.90
25468;DHT22;13384;24.794;110.498;2022-08-04T18:10:43;26.10;99.90
25468;DHT22;13384;24.794;110.498;2022-08-04T18:13:26;26.00;99.90
25468;DHT22;13384;24.794;110.498;2022-08-04T18:16:10;26.00;99.90
25468;DHT22;13384;24.794;110.498;2022-08-04T18:19:11;25.90;99.90
25468;DHT22;13384;24.794;110.498;2022-08-04T18:21:47;25.80;99.90
25468;DHT22;13384;24.794;110.498;2022-08-04T18:24:31;25.90;99.90
25468;DHT22;13384;24.794;110.498;2022-08-04T18:27:24;26.00;99.90
25468;DHT22;13384;24.794;110.498;2022-08-04T18:29:58;25.90;99.90
25468;DHT22;13384;24.794;110.498;2022-08-04T18:32:52;26.00;99.90
25468;DHT22;13384;24.794;110.498;2022-08-04T18:35:44;25.70;99.90
25468;DHT22;13384;24.794;110.498;2022-08-04T18:38:36;25.80;99.90
25468;DHT22;13384;24.794;110.498;2022-08-04T18:41:24;25.90;99.90
25468;DHT22;13384;24.794;110.498;2022-08-04T18:43:56;26.00;99.90
25468;DHT22;13384;24.794;110.498;2022-08-04T18:46:27;26.00;99.90
25468;DHT22;13384;24.794;110.498;2022-08-04T18:48:58;26.00;99.90
25468;DHT22;13384;24.794;110.498;2022-08-04T18:51:29;26.00;99.90
25468;DHT22;13384;24.794;110.498;2022-08-04T18:54:01;26.00;99.90
25468;DHT22;13384;24.794;110.498;2022-08-04T18:56:34;26.00;99.90
25468;DHT22;13384;24.794;110.498;2022-08-04T18:59:05;26.00;99.90
25468;DHT22;13384;24.794;110.498;2022-08-04T19:01:38;26.00;99.90
25468;DHT22;13384;24.794;110.498;2022-08-04T19:04:29;26.00;99.90
25468;DHT22;13384;24.794;110.498;2022-08-04T19:07:05;26.00;99.90
25468;DHT22;13384;24.794;110.498;2022-08-04T19:09:56;26.00;99.90
25468;DHT22;13384;24.794;110.498;2022-08-04T19:12:29;26.10;99.90
25468;DHT22;13384;24.794;110.498;2022-08-04T19:15:02;26.00;99.90
25468;DHT22;13384;24.794;110.498;2022-08-04T19:17:52;25.90;99.90
25468;DHT22;13384;24.794;110.498;2022-08-04T19:20:28;25.90;99.90
25468;DHT22;13384;24.794;110.498;2022-08-04T19:23:00;25.80;99.90
25468;DHT22;13384;24.794;110.498;2022-08-04T19:25:51;25.90;99.90
25468;DHT22;13384;24.794;110.498;2022-08-04T19:28:34;25.90;99.90
25468;DHT22;13384;24.794;110.498;2022-08-04T19:31:05;25.90;99.90
25468;DHT22;13384;24.794;110.498;2022-08-04T19:33:38;25.90;99.90
25468;DHT22;13384;24.794;110.498;2022-08-04T19:36:31;26.00;99.90
25468;DHT22;13384;24.794;110.498;2022-08-04T19:39:06;25.90;99.90
25468;DHT22;13384;24.794;110.498;2022-08-04T19:41:39;25.90;99.90
25468;DHT22;13384;24.794;110.498;2022-08-04T19:44:32;26.00;99.90
25468;DHT22;13384;24.794;110.498;2022-08-04T19:47:11;26.00;99.90
25468;DHT22;13384;24.794;110.498;2022-08-04T19:50:04;26.00;99.90
25468;DHT22;13384;24.794;110.498;2022-08-04T19:52:39;25.90;99.90
25468;DHT22;13384;24.794;110.498;2022-08-04T19:55:22;26.00;99.90
25468;DHT22;13384;24.794;110.498;2022-08-04T19:58:07;26.00;99.90
25468;DHT22;13384;24.794;110.498;2022-08-04T20:00:40;26.00;99.90
25468;DHT22;13384;24.794;110.498;2022-08-04T20:03:19;26.00;99.90
25468;DHT22;13384;24.794;110.498;2022-08-04T20:06:10;25.80;99.90
25468;DHT22;13384;24.794;110.498;2022-08-04T20:08:42;25.80;99.90
25468;DHT22;13384;24.794;110.498;2022-08-04T20:11:22;25.70;99.90
25468;DHT22;13384;24.794;110.498;2022-08-04T20:13:55;25.70;99.90
25468;DHT22;13384;24.794;110.498;2022-08-04T20:16:26;25.70;99.90
25468;DHT22;13384;24.794;110.498;2022-08-04T20:18:59;25.70;99.90
25468;DHT22;13384;24.794;110.498;2022-08-04T20:21:36;25.70;99.90
25468;DHT22;13384;24.794;110.498;2022-08-04T20:24:24;25.60;99.90
25468;DHT22;13384;24.794;110.498;2022-08-04T20:27:12;25.60;99.90
25468;DHT22;13384;24.794;110.498;2022-08-04T20:29:45;25.50;99.90
25468;DHT22;13384;24.794;110.498;2022-08-04T20:32:20;25.50;99.90
25468;DHT22;13384;24.794;110.498;2022-08-04T20:35:09;25.50;99.90
25468;DHT22;13384;24.794;110.498;2022-08-04T20:38:02;25.40;99.90
25468;DHT22;13384;24.794;110.498;2022-08-04T20:40:54;25.40;99.90
25468;DHT22;13384;24.794;110.498;2022-08-04T20:43:26;25.50;99.90
25468;DHT22;13384;24.794;110.498;2022-08-04T20:45:59;25.40;99.90
25468;DHT22;13384;24.794;110.498;2022-08-04T20:48:46;25.40;99.90
25468;DHT22;13384;24.794;110.498;2022-08-04T20:51:17;25.30;99.90
25468;DHT22;13384;24.794;110.498;2022-08-04T20:54:00;25.30;99.90
25468;DHT22;13384;24.794;110.498;2022-08-04T20:56:45;25.30;99.90
25468;DHT22;13384;24.794;110.498;2022-08-04T20:59:36;25.20;99.90